Time;durP1;ratioP1;P1;durP2;ratioP2;P2;SDS_P1;SDS_P2;PMS_P1;PMS_P2;Temp;Humidity;BMP_temperature;BMP_pressure;BME280_temperature;BME280_humidity;BME280_pressure;Samples;Min_cycle;Max_cycle;Signal;HPM_P1;HPM_P2
2022/05/02 00:02:19;;;;;;;;;;;;;;;;;;4983595;28;19918;-67
2022/05/02 00:05:04;;;;;;;;;;;;;;;;;;4988435;28;19922;-67
2022/05/02 00:07:49;;;;;;;;;;;;;;;;;;4980953;28;20181;-67
2022/05/02 00:10:34;;;;;;;;;;;;;;;;;;4963656;28;20705;-66
2022/05/02 00:13:19;;;;;;;;;;;;;;;;;;4980375;28;19914;-65
2022/05/02 00:16:04;;;;;;;;;;;;;;;;;;4994878;28;19921;-67
2022/05/02 00:18:49;;;;;;;;;;;;;;;;;;4983876;28;19920;-65
2022/05/02 00:21:35;;;;;;;;;;;;;;;;;;4974744;28;20012;-66
2022/05/02 00:24:20;;;;;;;;;;;;;;;;;;4978428;28;19913;-66
2022/05/02 00:27:05;;;;;;;;;;;;;;;;;;4985127;28;20324;-70
2022/05/02 00:29:50;;;;;;;;;;;;;;;;;;4987254;28;19914;-64
2022/05/02 00:32:35;;;;;;;;;;;;;;;;;;4985456;28;19917;-64
2022/05/02 00:35:20;;;;;;;;;;;;;;;;;;4969433;28;19965;-65
2022/05/02 00:38:05;;;;;;;;;;;;;;;;;;4995715;28;19913;-64
2022/05/02 00:40:51;;;;;;;;;;;;;;;;;;4987896;28;19938;-64
2022/05/02 00:43:36;;;;;;;;;;;;;;;;;;4987370;28;20285;-63
2022/05/02 00:46:21;;;;;;;;;;;;;;;;;;4974047;28;20004;-64
2022/05/02 00:49:06;;;;;;;;;;;;;;;;;;4988440;28;20376;-66
2022/05/02 00:51:51;;;;;;;;;;;;;;;;;;4979547;28;19976;-63
2022/05/02 00:54:37;;;;;;;;;;;;;;;;;;4986797;28;20306;-62
2022/05/02 00:57:23;;;;;;;;;;;;;;;;;;4985633;28;19921;-66
2022/05/02 01:00:08;;;;;;;;;;;;;;;;;;4969639;28;19909;-63
2022/05/02 01:02:53;;;;;;;;;;;;;;;;;;4979644;28;20321;-63
2022/05/02 01:08:42;;;;;;;;;;;;;;;;;;4985274;28;19913;-64
2022/05/02 01:11:28;;;;;;;;;;;;;;;;;;4990089;28;19997;-67
2022/05/02 01:14:13;;;;;;;;;;;;;;;;;;4992888;28;19944;-64
2022/05/02 01:16:58;;;;;;;;;;;;;;;;;;4980292;28;20510;-65
2022/05/02 01:19:43;;;;;;;;;;;;;;;;;;4985354;28;19921;-64
2022/05/02 01:22:28;;;;;;;;;;;;;;;;;;4968665;28;19959;-66
2022/05/02 01:25:13;;;;;;;;;;;;;;;;;;4976469;28;20017;-66
2022/05/02 01:27:58;;;;;;;;;;;;;;;;;;4975867;28;20303;-65
2022/05/02 01:30:43;;;;;;;;;;;;;;;;;;4987118;28;19957;-65
2022/05/02 01:33:29;;;;;;;;;;;;;;;;;;4977722;28;19957;-65
2022/05/02 01:36:14;;;;;;;;;;;;;;;;;;4975873;28;19921;-65
2022/05/02 01:38:59;;;;;;;;;;;;;;;;;;4977578;28;19933;-64
2022/05/02 01:41:44;;;;;;;;;;;;;;;;;;4988210;28;19964;-64
2022/05/02 01:44:29;;;;;;;;;;;;;;;;;;4985328;28;19940;-65
2022/05/02 01:47:14;;;;;;;;;;;;;;;;;;4961965;28;19922;-67
2022/05/02 01:49:59;;;;;;;;;;;;;;;;;;4977523;28;20253;-65
2022/05/02 01:52:45;;;;;;;;;;;;;;;;;;4987399;28;19967;-68
2022/05/02 01:55:30;;;;;;;;;;;;;;;;;;4988830;28;19918;-65
2022/05/02 01:58:15;;;;;;;;;;;;;;;;;;4986605;28;20029;-65
2022/05/02 02:01:00;;;;;;;;;;;;;;;;;;4977596;28;20024;-67
2022/05/02 02:03:45;;;;;;;;;;;;;;;;;;4983901;28;19943;-66
2022/05/02 02:06:30;;;;;;;;;;;;;;;;;;4982620;28;19914;-62
2022/05/02 02:09:15;;;;;;;;;;;;;;;;;;5003660;28;20092;-62
2022/05/02 02:12:01;;;;;;;;;;;;;;;;;;4973596;28;19916;-64
2022/05/02 02:14:46;;;;;;;;;;;;;;;;;;4979248;28;20276;-65
2022/05/02 02:17:31;;;;;;;;;;;;;;;;;;4974502;28;19918;-63
2022/05/02 02:20:16;;;;;;;;;;;;;;;;;;4988059;28;19921;-67
2022/05/02 02:23:01;;;;;;;;;;;;;;;;;;4984691;28;20269;-61
2022/05/02 02:25:47;;;;;;;;;;;;;;;;;;4978336;28;19961;-62
2022/05/02 02:28:32;;;;;;;;;;;;;;;;;;4980475;28;19914;-63
2022/05/02 02:31:17;;;;;;;;;;;;;;;;;;4981118;28;19953;-63
2022/05/02 02:34:02;;;;;;;;;;;;;;;;;;4986838;28;20392;-64
2022/05/02 02:36:47;;;;;;;;;;;;;;;;;;4968977;28;19918;-66
2022/05/02 02:39:32;;;;;;;;;;;;;;;;;;4981528;28;19914;-63
2022/05/02 02:42:17;;;;;;;;;;;;;;;;;;4988975;28;19913;-62
2022/05/02 02:45:03;;;;;;;;;;;;;;;;;;4991271;28;19959;-62
2022/05/02 02:47:48;;;;;;;;;;;;;;;;;;4988583;28;19945;-62
2022/05/02 02:50:33;;;;;;;;;;;;;;;;;;4978623;28;19917;-64
2022/05/02 02:53:18;;;;;;;;;;;;;;;;;;4983075;28;19993;-62
2022/05/02 02:56:03;;;;;;;;;;;;;;;;;;4984754;28;19917;-66
2022/05/02 02:58:48;;;;;;;;;;;;;;;;;;4971265;28;19922;-64
2022/05/02 03:01:34;;;;;;;;;;;;;;;;;;4962144;28;20005;-68
2022/05/02 03:07:23;;;;;;;;;;;;;;;;;;4977753;28;19913;-66
2022/05/02 03:10:08;;;;;;;;;;;;;;;;;;4978659;28;19914;-65
2022/05/02 03:12:53;;;;;;;;;;;;;;;;;;4958797;28;20415;-65
2022/05/02 03:15:38;;;;;;;;;;;;;;;;;;4973421;28;19925;-65
2022/05/02 03:18:23;;;;;;;;;;;;;;;;;;4987874;28;20313;-64
2022/05/02 03:21:08;;;;;;;;;;;;;;;;;;4991099;28;19930;-64
2022/05/02 03:23:54;;;;;;;;;;;;;;;;;;4959358;28;20369;-64
2022/05/02 03:26:39;;;;;;;;;;;;;;;;;;4975145;28;19971;-65
2022/05/02 03:29:24;;;;;;;;;;;;;;;;;;4982980;28;20362;-66
2022/05/02 03:32:09;;;;;;;;;;;;;;;;;;4990269;28;19968;-66
2022/05/02 03:34:54;;;;;;;;;;;;;;;;;;4988530;28;19926;-63
2022/05/02 03:37:39;;;;;;;;;;;;;;;;;;4968126;28;19913;-63
2022/05/02 03:40:25;;;;;;;;;;;;;;;;;;4979624;28;20431;-63
2022/05/02 03:43:10;;;;;;;;;;;;;;;;;;4986241;28;19917;-64
2022/05/02 03:45:55;;;;;;;;;;;;;;;;;;4988053;28;20325;-63
2022/05/02 03:48:40;;;;;;;;;;;;;;;;;;4987160;28;19921;-65
2022/05/02 03:51:25;;;;;;;;;;;;;;;;;;4979225;28;19968;-68
2022/05/02 03:54:10;;;;;;;;;;;;;;;;;;4982573;28;19914;-67
2022/05/02 03:56:56;;;;;;;;;;;;;;;;;;4983092;28;20327;-70
2022/05/02 03:59:41;;;;;;;;;;;;;;;;;;4998196;28;19968;-68
2022/05/02 04:02:26;;;;;;;;;;;;;;;;;;4976333;28;20159;-67
2022/05/02 04:05:11;;;;;;;;;;;;;;;;;;4978937;28;19922;-69
2022/05/02 04:07:56;;;;;;;;;;;;;;;;;;4987370;28;19914;-68
2022/05/02 04:10:41;;;;;;;;;;;;;;;;;;4984246;28;20393;-66
2022/05/02 04:13:26;;;;;;;;;;;;;;;;;;4972595;28;19968;-65
2022/05/02 04:16:12;;;;;;;;;;;;;;;;;;4972936;28;19972;-65
2022/05/02 04:18:57;;;;;;;;;;;;;;;;;;4984837;28;19914;-64
2022/05/02 04:21:42;;;;;;;;;;;;;;;;;;4976558;28;19914;-63
2022/05/02 04:24:28;;;;;;;;;;;;;;;;;;4977009;28;19920;-64
2022/05/02 04:27:13;;;;;;;;;;;;;;;;;;4974911;28;19922;-65
2022/05/02 04:29:58;;;;;;;;;;;;;;;;;;4973257;28;19921;-63
2022/05/02 04:32:43;;;;;;;;;;;;;;;;;;4982156;28;19935;-62
2022/05/02 04:35:29;;;;;;;;;;;;;;;;;;4977466;28;20379;-61
2022/05/02 04:38:14;;;;;;;;;;;;;;;;;;4988607;28;19918;-62
2022/05/02 04:40:59;;;;;;;;;;;;;;;;;;4976685;28;20323;-65
2022/05/02 04:43:45;;;;;;;;;;;;;;;;;;4974256;28;19921;-63
2022/05/02 04:46:30;;;;;;;;;;;;;;;;;;4985004;28;19925;-66
2022/05/02 04:49:15;;;;;;;;;;;;;;;;;;4983061;28;20006;-67
2022/05/02 04:52:00;;;;;;;;;;;;;;;;;;4972569;28;19913;-66
2022/05/02 04:54:45;;;;;;;;;;;;;;;;;;4977926;28;20384;-67
2022/05/02 04:57:30;;;;;;;;;;;;;;;;;;4987193;28;19917;-66
2022/05/02 05:00:16;;;;;;;;;;;;;;;;;;4988386;28;19929;-66
2022/05/02 05:03:01;;;;;;;;;;;;;;;;;;4974818;28;19913;-66
2022/05/02 05:05:46;;;;;;;;;;;;;;;;;;4980049;28;19914;-68
2022/05/02 05:08:31;;;;;;;;;;;;;;;;;;4987412;28;19956;-69
2022/05/02 05:11:16;;;;;;;;;;;;;;;;;;4988741;28;19914;-68
2022/05/02 05:17:06;;;;;;;;;;;;;;;;;;4977678;28;20340;-68
2022/05/02 05:19:51;;;;;;;;;;;;;;;;;;4976288;28;20013;-68
2022/05/02 05:22:36;;;;;;;;;;;;;;;;;;4954231;28;19941;-63
2022/05/02 05:25:21;;;;;;;;;;;;;;;;;;4977454;28;19980;-66
2022/05/02 05:28:06;;;;;;;;;;;;;;;;;;4992440;28;19994;-64
2022/05/02 05:30:51;;;;;;;;;;;;;;;;;;4988804;28;20384;-65
2022/05/02 05:33:37;;;;;;;;;;;;;;;;;;4979011;28;19920;-64
2022/05/02 05:36:23;;;;;;;;;;;;;;;;;;4988807;28;19924;-67
2022/05/02 05:39:08;;;;;;;;;;;;;;;;;;4971635;28;19921;-66
2022/05/02 05:41:53;;;;;;;;;;;;;;;;;;4988739;28;19913;-64
2022/05/02 05:44:38;;;;;;;;;;;;;;;;;;4981945;28;19952;-65
2022/05/02 05:47:23;;;;;;;;;;;;;;;;;;4992574;28;19936;-65
2022/05/02 05:50:08;;;;;;;;;;;;;;;;;;4975413;28;20008;-64
2022/05/02 05:52:53;;;;;;;;;;;;;;;;;;4964315;28;19954;-64
2022/05/02 05:55:39;;;;;;;;;;;;;;;;;;4988901;28;20361;-64
2022/05/02 05:58:24;;;;;;;;;;;;;;;;;;4987908;28;19918;-68
2022/05/02 06:01:09;;;;;;;;;;;;;;;;;;4977136;28;19914;-63
2022/05/02 06:03:55;;;;;;;;;;;;;;;;;;4976599;28;20016;-66
2022/05/02 06:06:40;;;;;;;;;;;;;;;;;;4973698;28;20008;-66
2022/05/02 06:09:25;;;;;;;;;;;;;;;;;;4971649;28;20030;-69
2022/05/02 06:12:10;;;;;;;;;;;;;;;;;;4985631;28;19914;-65
2022/05/02 06:21:03;;;;;;;;;;;;;;;;;;4988845;28;19918;-66
2022/05/02 06:23:50;;;;;;;;;;;;;;;;;;4979510;28;19914;-65
2022/05/02 06:26:35;;;;;;;;;;;;;;;;;;4974114;28;20308;-65
2022/05/02 06:29:20;;;;;;;;;;;;;;;;;;4989953;28;19922;-69
2022/05/02 06:32:07;;;;;;;;;;;;;;;;;;4993220;28;19914;-71
2022/05/02 06:34:52;;;;;;;;;;;;;;;;;;4981084;28;20254;-64
2022/05/02 06:37:37;;;;;;;;;;;;;;;;;;4979346;28;19921;-65
2022/05/02 06:40:22;;;;;;;;;;;;;;;;;;4989332;28;19922;-69
2022/05/02 06:43:07;;;;;;;;;;;;;;;;;;4988535;28;19914;-67
2022/05/02 06:45:52;;;;;;;;;;;;;;;;;;4984426;28;20029;-68
2022/05/02 06:48:37;;;;;;;;;;;;;;;;;;4986349;28;19921;-71
2022/05/02 06:51:23;;;;;;;;;;;;;;;;;;4987621;28;19920;-69
2022/05/02 06:54:08;;;;;;;;;;;;;;;;;;4985998;28;19921;-64
2022/05/02 06:56:53;;;;;;;;;;;;;;;;;;4987207;28;20020;-65
2022/05/02 06:59:38;;;;;;;;;;;;;;;;;;4980403;28;19921;-68
2022/05/02 07:02:24;;;;;;;;;;;;;;;;;;4979451;28;20407;-69
2022/05/02 07:05:09;;;;;;;;;;;;;;;;;;4979077;28;20288;-67
2022/05/02 07:07:54;;;;;;;;;;;;;;;;;;4984795;28;19914;-67
2022/05/02 07:10:39;;;;;;;;;;;;;;;;;;4985463;28;20072;-68
2022/05/02 07:13:24;;;;;;;;;;;;;;;;;;4970422;28;19971;-68
2022/05/02 07:16:10;;;;;;;;;;;;;;;;;;4971597;28;19918;-67
2022/05/02 07:18:55;;;;;;;;;;;;;;;;;;4984390;28;19918;-68
2022/05/02 07:21:40;;;;;;;;;;;;;;;;;;4988981;28;20226;-68
2022/05/02 07:24:25;;;;;;;;;;;;;;;;;;4987006;28;19918;-68
2022/05/02 07:27:10;;;;;;;;;;;;;;;;;;4972108;28;19924;-67
2022/05/02 07:29:56;;;;;;;;;;;;;;;;;;4979824;28;19913;-68
2022/05/02 07:32:41;;;;;;;;;;;;;;;;;;4980496;28;20424;-69
2022/05/02 07:35:26;;;;;;;;;;;;;;;;;;4982133;28;19921;-67
2022/05/02 07:38:11;;;;;;;;;;;;;;;;;;4972503;28;20349;-67
2022/05/02 07:44:00;;;;;;;;;;;;;;;;;;4983990;28;19961;-66
2022/05/02 07:46:45;;;;;;;;;;;;;;;;;;4985127;28;19928;-65
2022/05/02 07:49:30;;;;;;;;;;;;;;;;;;4970747;28;20448;-64
2022/05/02 07:52:16;;;;;;;;;;;;;;;;;;4976020;28;20007;-66
2022/05/02 07:55:01;;;;;;;;;;;;;;;;;;4985602;28;19926;-68
2022/05/02 07:57:46;;;;;;;;;;;;;;;;;;4982285;28;20017;-66
2022/05/02 08:00:31;;;;;;;;;;;;;;;;;;4986908;28;19914;-68
2022/05/02 08:03:16;;;;;;;;;;;;;;;;;;4973192;28;19932;-67
2022/05/02 08:06:02;;;;;;;;;;;;;;;;;;4990823;28;19920;-67
2022/05/02 08:08:47;;;;;;;;;;;;;;;;;;4983321;28;20416;-65
2022/05/02 08:11:32;;;;;;;;;;;;;;;;;;4984941;28;19914;-64
2022/05/02 08:14:17;;;;;;;;;;;;;;;;;;4965918;28;19922;-62
2022/05/02 08:17:02;;;;;;;;;;;;;;;;;;4974795;28;19917;-64
2022/05/02 08:19:47;;;;;;;;;;;;;;;;;;4980599;28;19913;-67
2022/05/02 08:28:43;;;;;;;;;;;;;;;;;;4975188;28;20000;-65
2022/05/02 08:31:28;;;;;;;;;;;;;;;;;;4989368;28;19918;-69
2022/05/02 08:34:13;;;;;;;;;;;;;;;;;;4984217;28;20527;-70
2022/05/02 08:36:59;;;;;;;;;;;;;;;;;;4967627;28;20008;-69
2022/05/02 08:39:44;;;;;;;;;;;;;;;;;;4975424;28;19918;-66
2022/05/02 08:42:29;;;;;;;;;;;;;;;;;;4983082;28;19992;-72
2022/05/02 08:45:14;;;;;;;;;;;;;;;;;;4981903;28;20384;-73
2022/05/02 08:47:59;;;;;;;;;;;;;;;;;;4957510;28;20052;-71
2022/05/02 08:50:44;;;;;;;;;;;;;;;;;;4968113;28;19938;-67
2022/05/02 08:53:29;;;;;;;;;;;;;;;;;;4997543;28;19952;-70
2022/05/02 08:56:14;;;;;;;;;;;;;;;;;;4984878;28;20198;-68
2022/05/02 08:59:00;;;;;;;;;;;;;;;;;;4984194;28;19965;-65
2022/05/02 09:01:45;;;;;;;;;;;;;;;;;;4971248;28;19953;-66
2022/05/02 09:04:30;;;;;;;;;;;;;;;;;;4978542;28;20332;-67
2022/05/02 09:07:15;;;;;;;;;;;;;;;;;;4995777;28;19967;-66
2022/05/02 09:10:01;;;;;;;;;;;;;;;;;;4984714;28;19996;-68
2022/05/02 09:12:46;;;;;;;;;;;;;;;;;;4970635;28;20372;-71
2022/05/02 09:15:31;;;;;;;;;;;;;;;;;;4973907;28;19969;-71
2022/05/02 09:18:16;;;;;;;;;;;;;;;;;;4984573;28;19918;-72
2022/05/02 09:21:01;;;;;;;;;;;;;;;;;;4984402;28;19913;-74
2022/05/02 09:23:47;;;;;;;;;;;;;;;;;;4981600;28;19922;-70
2022/05/02 09:26:32;;;;;;;;;;;;;;;;;;4983070;28;20361;-70
2022/05/02 09:29:17;;;;;;;;;;;;;;;;;;4973051;28;19913;-69
2022/05/02 09:32:02;;;;;;;;;;;;;;;;;;4983482;28;20349;-68
2022/05/02 09:34:47;;;;;;;;;;;;;;;;;;4985423;28;20275;-68
2022/05/02 09:37:32;;;;;;;;;;;;;;;;;;4983087;28;19955;-69
2022/05/02 09:40:18;;;;;;;;;;;;;;;;;;4986286;28;20372;-66
2022/05/02 09:43:04;;;;;;;;;;;;;;;;;;4982670;28;19926;-66
2022/05/02 09:51:48;;;;;;;;;;;;;;;;;;4985954;28;19920;-65
2022/05/02 09:57:37;;;;;;;;;;;;;;;;;;4984117;28;19922;-67
2022/05/02 10:03:28;;;;;;;;;;;;;;;;;;4991371;28;19914;-66
2022/05/02 10:06:13;;;;;;;;;;;;;;;;;;4969944;28;19914;-69
2022/05/02 10:09:00;;;;;;;;;;;;;;;;;;4986177;28;19914;-67
2022/05/02 10:11:47;;;;;;;;;;;;;;;;;;4975327;28;19913;-69
2022/05/02 10:14:32;;;;;;;;;;;;;;;;;;4990398;28;19921;-68
2022/05/02 10:17:17;;;;;;;;;;;;;;;;;;4987369;28;20384;-65
2022/05/02 10:20:02;;;;;;;;;;;;;;;;;;4986981;28;19968;-61
2022/05/02 10:22:48;;;;;;;;;;;;;;;;;;4976148;28;19972;-60
2022/05/02 10:25:33;;;;;;;;;;;;;;;;;;4979933;28;19918;-59
2022/05/02 10:28:18;;;;;;;;;;;;;;;;;;4982200;28;19922;-60
2022/05/02 10:31:03;;;;;;;;;;;;;;;;;;4990755;28;19914;-60
2022/05/02 10:33:48;;;;;;;;;;;;;;;;;;4970509;28;19953;-59
2022/05/02 10:36:33;;;;;;;;;;;;;;;;;;4982506;28;19961;-56
2022/05/02 10:39:18;;;;;;;;;;;;;;;;;;4979489;28;20277;-63
2022/05/02 10:42:03;;;;;;;;;;;;;;;;;;4985012;28;19921;-67
2022/05/02 10:44:50;;;;;;;;;;;;;;;;;;4979522;28;19928;-66
2022/05/02 10:47:35;;;;;;;;;;;;;;;;;;4971386;28;20013;-65
2022/05/02 10:50:20;;;;;;;;;;;;;;;;;;4976821;28;20503;-65
2022/05/02 10:53:07;;;;;;;;;;;;;;;;;;4982881;28;19929;-65
2022/05/02 10:55:54;;;;;;;;;;;;;;;;;;4983480;28;19924;-66
2022/05/02 10:58:39;;;;;;;;;;;;;;;;;;4967429;28;20281;-62
2022/05/02 11:01:24;;;;;;;;;;;;;;;;;;4967658;28;19913;-61
2022/05/02 11:04:09;;;;;;;;;;;;;;;;;;4997273;28;20337;-61
2022/05/02 11:06:56;;;;;;;;;;;;;;;;;;4985894;28;19922;-65
2022/05/02 11:09:41;;;;;;;;;;;;;;;;;;4987861;28;19914;-62
2022/05/02 11:12:26;;;;;;;;;;;;;;;;;;4974805;28;19914;-68
2022/05/02 11:15:12;;;;;;;;;;;;;;;;;;4974066;28;19918;-69
2022/05/02 11:17:57;;;;;;;;;;;;;;;;;;4985835;28;19914;-67
2022/05/02 11:20:42;;;;;;;;;;;;;;;;;;4980874;28;19914;-69
2022/05/02 11:23:27;;;;;;;;;;;;;;;;;;4973334;28;20383;-65
2022/05/02 11:26:12;;;;;;;;;;;;;;;;;;4981423;28;20274;-68
2022/05/02 11:28:57;;;;;;;;;;;;;;;;;;4985063;28;20000;-75
2022/05/02 11:31:43;;;;;;;;;;;;;;;;;;4994808;28;19928;-68
2022/05/02 11:34:28;;;;;;;;;;;;;;;;;;4989415;28;20288;-66
2022/05/02 11:37:13;;;;;;;;;;;;;;;;;;4968724;28;19928;-65
2022/05/02 11:39:58;;;;;;;;;;;;;;;;;;4988760;28;20148;-63
2022/05/02 11:42:43;;;;;;;;;;;;;;;;;;4982677;28;20375;-61
2022/05/02 11:45:29;;;;;;;;;;;;;;;;;;4984861;28;19920;-61
2022/05/02 11:48:14;;;;;;;;;;;;;;;;;;4967443;28;20205;-61
2022/05/02 11:50:59;;;;;;;;;;;;;;;;;;4972808;28;19914;-69
2022/05/02 11:53:44;;;;;;;;;;;;;;;;;;4985232;28;19918;-69
2022/05/02 11:56:29;;;;;;;;;;;;;;;;;;4983428;28;19918;-68
2022/05/02 11:59:14;;;;;;;;;;;;;;;;;;4969272;28;20061;-71
2022/05/02 12:01:59;;;;;;;;;;;;;;;;;;4974105;28;19914;-68
2022/05/02 12:04:45;;;;;;;;;;;;;;;;;;4984994;28;19918;-70
2022/05/02 12:07:30;;;;;;;;;;;;;;;;;;4985483;28;19972;-65
2022/05/02 12:10:15;;;;;;;;;;;;;;;;;;4993371;28;19964;-63
2022/05/02 12:13:01;;;;;;;;;;;;;;;;;;4971840;28;20330;-70
2022/05/02 12:15:46;;;;;;;;;;;;;;;;;;4962619;28;19922;-67
2022/05/02 12:18:31;;;;;;;;;;;;;;;;;;4983270;28;19961;-66
2022/05/02 12:21:16;;;;;;;;;;;;;;;;;;4979693;28;19914;-69
2022/05/02 12:24:02;;;;;;;;;;;;;;;;;;4970928;28;20300;-66
2022/05/02 12:26:50;;;;;;;;;;;;;;;;;;4973708;28;19944;-62
2022/05/02 12:29:35;;;;;;;;;;;;;;;;;;4981477;28;20151;-66
2022/05/02 12:32:20;;;;;;;;;;;;;;;;;;4984806;28;19957;-65
2022/05/02 12:35:06;;;;;;;;;;;;;;;;;;4983635;28;19932;-64
2022/05/02 12:37:51;;;;;;;;;;;;;;;;;;4972191;28;20332;-62
2022/05/02 12:40:36;;;;;;;;;;;;;;;;;;4974860;28;19921;-63
2022/05/02 12:43:21;;;;;;;;;;;;;;;;;;4983885;28;20032;-64
2022/05/02 12:46:07;;;;;;;;;;;;;;;;;;4981110;28;19918;-62
2022/05/02 12:48:52;;;;;;;;;;;;;;;;;;4967139;28;19917;-57
2022/05/02 12:51:37;;;;;;;;;;;;;;;;;;4972911;28;20271;-57
2022/05/02 12:54:22;;;;;;;;;;;;;;;;;;4982501;28;19914;-60
2022/05/02 13:03:15;;;;;;;;;;;;;;;;;;4978915;28;19917;-57
2022/05/02 13:06:01;;;;;;;;;;;;;;;;;;4997976;28;19921;-62
2022/05/02 13:08:46;;;;;;;;;;;;;;;;;;4981707;28;20013;-65
2022/05/02 13:11:31;;;;;;;;;;;;;;;;;;4971326;28;19959;-65
2022/05/02 13:14:16;;;;;;;;;;;;;;;;;;4970841;28;19914;-66
2022/05/02 13:17:01;;;;;;;;;;;;;;;;;;4985066;28;19945;-66
2022/05/02 13:19:46;;;;;;;;;;;;;;;;;;4980282;28;19918;-69
2022/05/02 13:22:31;;;;;;;;;;;;;;;;;;4968945;28;19913;-69
2022/05/02 13:25:18;;;;;;;;;;;;;;;;;;4970982;28;20521;-64
2022/05/02 13:28:03;;;;;;;;;;;;;;;;;;4995707;28;19983;-66
2022/05/02 13:30:48;;;;;;;;;;;;;;;;;;4984526;28;20485;-64
2022/05/02 13:33:35;;;;;;;;;;;;;;;;;;4981237;28;19914;-67
2022/05/02 13:36:20;;;;;;;;;;;;;;;;;;4985096;28;19918;-69
2022/05/02 13:39:06;;;;;;;;;;;;;;;;;;4990035;28;19932;-68
2022/05/02 13:41:51;;;;;;;;;;;;;;;;;;4980175;28;19925;-68
2022/05/02 13:44:36;;;;;;;;;;;;;;;;;;4987191;28;20286;-67
2022/05/02 13:47:21;;;;;;;;;;;;;;;;;;4981417;28;20008;-68
2022/05/02 13:50:11;;;;;;;;;;;;;;;;;;4979519;28;19917;-68
2022/05/02 13:52:56;;;;;;;;;;;;;;;;;;4986908;28;19918;-70
2022/05/02 13:55:45;;;;;;;;;;;;;;;;;;4986506;28;20381;-70
2022/05/02 13:58:30;;;;;;;;;;;;;;;;;;4986305;28;19913;-67
2022/05/02 14:01:28;;;;;;;;;;;;;;;;;;4986858;28;19929;-71
2022/05/02 14:04:22;;;;;;;;;;;;;;;;;;4982706;28;20260;-69
2022/05/02 14:07:14;;;;;;;;;;;;;;;;;;4988494;28;20172;-67
2022/05/02 14:10:03;;;;;;;;;;;;;;;;;;4971990;28;19920;-67
2022/05/02 14:12:48;;;;;;;;;;;;;;;;;;4977313;28;19922;-70
2022/05/02 14:15:34;;;;;;;;;;;;;;;;;;4983809;28;19918;-68
2022/05/02 14:18:21;;;;;;;;;;;;;;;;;;4998182;28;19921;-67
2022/05/02 14:21:06;;;;;;;;;;;;;;;;;;4969253;28;19917;-68
2022/05/02 14:23:51;;;;;;;;;;;;;;;;;;4974995;28;20403;-67
2022/05/02 14:26:36;;;;;;;;;;;;;;;;;;4988094;28;19917;-68
2022/05/02 14:29:22;;;;;;;;;;;;;;;;;;4983939;28;20345;-67
2022/05/02 14:32:08;;;;;;;;;;;;;;;;;;4987678;28;19928;-67
2022/05/02 14:34:53;;;;;;;;;;;;;;;;;;4974352;28;20004;-66
2022/05/02 14:37:38;;;;;;;;;;;;;;;;;;4977414;28;20269;-64
2022/05/02 14:40:24;;;;;;;;;;;;;;;;;;4983431;28;20313;-67
2022/05/02 14:43:09;;;;;;;;;;;;;;;;;;4986442;28;19914;-66
2022/05/02 14:45:54;;;;;;;;;;;;;;;;;;4972424;28;19918;-66
2022/05/02 14:48:39;;;;;;;;;;;;;;;;;;4964038;28;19949;-69
2022/05/02 14:51:33;;;;;;;;;;;;;;;;;;4986448;28;20008;-68
2022/05/02 14:54:18;;;;;;;;;;;;;;;;;;4968400;28;19955;-66
2022/05/02 14:57:03;;;;;;;;;;;;;;;;;;4971724;28;19975;-66
2022/05/02 14:59:48;;;;;;;;;;;;;;;;;;4964868;28;19925;-64
2022/05/02 15:02:34;;;;;;;;;;;;;;;;;;4984890;28;20307;-64
2022/05/02 15:05:21;;;;;;;;;;;;;;;;;;4986573;28;19960;-66
2022/05/02 15:08:06;;;;;;;;;;;;;;;;;;4983578;28;20192;-66
2022/05/02 15:10:52;;;;;;;;;;;;;;;;;;4974138;28;19914;-67
2022/05/02 15:13:37;;;;;;;;;;;;;;;;;;4977332;28;20277;-69
2022/05/02 15:16:23;;;;;;;;;;;;;;;;;;4985621;28;19925;-67
2022/05/02 15:22:13;;;;;;;;;;;;;;;;;;4973840;28;19914;-66
2022/05/02 15:25:07;;;;;;;;;;;;;;;;;;4990031;28;19914;-69
2022/05/02 15:37:04;;;;;;;;;;;;;;;;;;4984422;28;19921;-67
2022/05/02 15:39:50;;;;;;;;;;;;;;;;;;4973034;28;19914;-68
2022/05/02 15:42:35;;;;;;;;;;;;;;;;;;4973058;28;19929;-68
2022/05/02 15:45:20;;;;;;;;;;;;;;;;;;4985614;28;20408;-68
2022/05/02 15:48:06;;;;;;;;;;;;;;;;;;4999456;28;20012;-69
2022/05/02 15:50:51;;;;;;;;;;;;;;;;;;4987115;28;20088;-63
2022/05/02 15:53:36;;;;;;;;;;;;;;;;;;4970483;28;19945;-69
2022/05/02 15:56:22;;;;;;;;;;;;;;;;;;4974688;28;19968;-69
2022/05/02 15:59:07;;;;;;;;;;;;;;;;;;4993904;28;20276;-72
2022/05/02 16:01:52;;;;;;;;;;;;;;;;;;4983614;28;19920;-69
2022/05/02 16:04:39;;;;;;;;;;;;;;;;;;4970078;28;19921;-68
2022/05/02 16:10:31;;;;;;;;;;;;;;;;;;4968849;28;19910;-66
2022/05/02 16:13:18;;;;;;;;;;;;;;;;;;4996423;28;19968;-66
2022/05/02 16:16:04;;;;;;;;;;;;;;;;;;4968735;28;19922;-64
2022/05/02 16:18:50;;;;;;;;;;;;;;;;;;4978029;28;19914;-64
2022/05/02 16:21:35;;;;;;;;;;;;;;;;;;4986727;28;20270;-64
2022/05/02 16:24:21;;;;;;;;;;;;;;;;;;4986442;28;20037;-63
2022/05/02 16:27:06;;;;;;;;;;;;;;;;;;4974992;28;21553;-67
2022/05/02 16:29:51;;;;;;;;;;;;;;;;;;4972856;28;19922;-63
2022/05/02 16:32:36;;;;;;;;;;;;;;;;;;4985714;28;19922;-64
2022/05/02 16:35:22;;;;;;;;;;;;;;;;;;4988529;28;19924;-63
2022/05/02 16:38:09;;;;;;;;;;;;;;;;;;4992341;28;20381;-64
2022/05/02 16:40:55;;;;;;;;;;;;;;;;;;4973433;28;20436;-68
2022/05/02 16:43:41;;;;;;;;;;;;;;;;;;4976676;28;19938;-70
2022/05/02 16:46:26;;;;;;;;;;;;;;;;;;4975341;28;20300;-64
2022/05/02 16:49:12;;;;;;;;;;;;;;;;;;4986041;28;19914;-64
2022/05/02 16:51:57;;;;;;;;;;;;;;;;;;4961935;28;19914;-63
2022/05/02 16:54:44;;;;;;;;;;;;;;;;;;4974649;28;20117;-63
2022/05/02 16:57:29;;;;;;;;;;;;;;;;;;4997997;28;19917;-65
2022/05/02 17:00:24;;;;;;;;;;;;;;;;;;4986213;28;19922;-65
2022/05/02 17:03:09;;;;;;;;;;;;;;;;;;4984374;28;20001;-62
2022/05/02 17:05:54;;;;;;;;;;;;;;;;;;4968433;28;19918;-66
2022/05/02 17:08:39;;;;;;;;;;;;;;;;;;4977710;28;19914;-66
2022/05/02 17:11:25;;;;;;;;;;;;;;;;;;4983690;28;19917;-66
2022/05/02 17:14:10;;;;;;;;;;;;;;;;;;4974113;28;19922;-68
2022/05/02 17:16:57;;;;;;;;;;;;;;;;;;4972716;28;19985;-68
2022/05/02 17:19:43;;;;;;;;;;;;;;;;;;4979566;28;19926;-66
2022/05/02 17:22:28;;;;;;;;;;;;;;;;;;4986323;28;19981;-66
2022/05/02 17:25:13;;;;;;;;;;;;;;;;;;4983664;28;19913;-68
2022/05/02 17:27:58;;;;;;;;;;;;;;;;;;4977097;28;19957;-70
2022/05/02 17:30:44;;;;;;;;;;;;;;;;;;4965923;28;19964;-71
2022/05/02 17:33:29;;;;;;;;;;;;;;;;;;4991425;28;20423;-69
2022/05/02 17:36:14;;;;;;;;;;;;;;;;;;4992591;28;19922;-69
2022/05/02 17:38:59;;;;;;;;;;;;;;;;;;4986136;28;20008;-68
2022/05/02 17:41:44;;;;;;;;;;;;;;;;;;4984656;28;19925;-68
2022/05/02 17:44:30;;;;;;;;;;;;;;;;;;4992818;28;19910;-66
2022/05/02 17:47:15;;;;;;;;;;;;;;;;;;4978365;28;19921;-66
2022/05/02 17:50:01;;;;;;;;;;;;;;;;;;4990364;28;20323;-65
2022/05/02 17:52:46;;;;;;;;;;;;;;;;;;4975819;28;19914;-63
2022/05/02 17:55:32;;;;;;;;;;;;;;;;;;4980893;28;20008;-64
2022/05/02 17:58:18;;;;;;;;;;;;;;;;;;4988804;28;19992;-66
2022/05/02 18:01:04;;;;;;;;;;;;;;;;;;4989387;28;20417;-64
2022/05/02 18:03:49;;;;;;;;;;;;;;;;;;4988418;28;19944;-64
2022/05/02 18:06:34;;;;;;;;;;;;;;;;;;4982551;28;20214;-64
2022/05/02 18:09:19;;;;;;;;;;;;;;;;;;4967098;28;19997;-64
2022/05/02 18:12:15;;;;;;;;;;;;;;;;;;4961526;28;19929;-63
2022/05/02 18:15:00;;;;;;;;;;;;;;;;;;4976822;28;19934;-65
2022/05/02 18:17:46;;;;;;;;;;;;;;;;;;4971345;28;19914;-64
2022/05/02 18:20:31;;;;;;;;;;;;;;;;;;4980792;28;19922;-69
2022/05/02 18:23:16;;;;;;;;;;;;;;;;;;4989364;28;19945;-68
2022/05/02 18:26:02;;;;;;;;;;;;;;;;;;4981449;28;20297;-67
2022/05/02 18:28:47;;;;;;;;;;;;;;;;;;4974785;28;19914;-69
2022/05/02 18:31:32;;;;;;;;;;;;;;;;;;4976073;28;19922;-67
2022/05/02 18:34:20;;;;;;;;;;;;;;;;;;4978565;28;20312;-64
2022/05/02 18:37:05;;;;;;;;;;;;;;;;;;4992708;28;19918;-67
2022/05/02 18:39:50;;;;;;;;;;;;;;;;;;4987346;28;19914;-67
2022/05/02 18:42:35;;;;;;;;;;;;;;;;;;4972127;28;19918;-66
2022/05/02 18:54:36;;;;;;;;;;;;;;;;;;4983490;28;20262;-64
2022/05/02 18:57:21;;;;;;;;;;;;;;;;;;4979935;28;19918;-67
2022/05/02 19:00:08;;;;;;;;;;;;;;;;;;4982242;28;19918;-68
2022/05/02 19:02:53;;;;;;;;;;;;;;;;;;4981866;28;19922;-65
2022/05/02 19:05:39;;;;;;;;;;;;;;;;;;4984764;28;19922;-66
2022/05/02 19:08:24;;;;;;;;;;;;;;;;;;4995272;28;20294;-66
2022/05/02 19:11:09;;;;;;;;;;;;;;;;;;4980747;28;19914;-65
2022/05/02 19:13:54;;;;;;;;;;;;;;;;;;4955387;28;19929;-71
2022/05/02 19:16:40;;;;;;;;;;;;;;;;;;4990395;28;20004;-69
2022/05/02 19:19:25;;;;;;;;;;;;;;;;;;4991392;28;19917;-68
2022/05/02 19:22:10;;;;;;;;;;;;;;;;;;4983208;28;20409;-67
2022/05/02 19:24:55;;;;;;;;;;;;;;;;;;4972298;28;19932;-71
2022/05/02 19:27:41;;;;;;;;;;;;;;;;;;4969134;28;20353;-68
2022/05/02 19:30:28;;;;;;;;;;;;;;;;;;4982701;28;19960;-65
2022/05/02 19:33:13;;;;;;;;;;;;;;;;;;4982615;28;19918;-63
2022/05/02 19:39:08;;;;;;;;;;;;;;;;;;4977200;28;20017;-64
2022/05/02 19:41:55;;;;;;;;;;;;;;;;;;4980228;28;19961;-66
2022/05/02 19:44:40;;;;;;;;;;;;;;;;;;4983678;28;20391;-66
2022/05/02 19:47:28;;;;;;;;;;;;;;;;;;4957057;28;19918;-65
2022/05/02 19:50:13;;;;;;;;;;;;;;;;;;4973974;28;19922;-63
2022/05/02 19:52:59;;;;;;;;;;;;;;;;;;4982091;28;19967;-70
2022/05/02 19:55:44;;;;;;;;;;;;;;;;;;4997123;28;20925;-73
2022/05/02 19:58:29;;;;;;;;;;;;;;;;;;4981240;28;20001;-73
2022/05/02 20:01:16;;;;;;;;;;;;;;;;;;4968088;28;19972;-75